Time;durP1;ratioP1;P1;durP2;ratioP2;P2;SDS_P1;SDS_P2;PMS_P1;PMS_P2;Temp;Humidity;BMP_temperature;BMP_pressure;BME280_temperature;BME280_humidity;BME280_pressure;Samples;Min_cycle;Max_cycle;Signal;HPM_P1;HPM_P2
2021/12/10 00:00:00;;;;;;;28.13;4.43;;;;;;;;;;4976153;28;20446;-23
2021/12/10 00:02:34;;;;;;;26.80;4.68;;;;;;;;;;4975635;28;20156;-22
2021/12/10 00:05:00;;;;;;;20.95;3.35;;;;;;;;;;4975738;28;20034;-22
2021/12/10 00:07:27;;;;;;;21.52;4.50;;;;;;;;;;4975602;28;20034;-22
2021/12/10 00:10:07;;;;;;;24.75;3.92;;;;;;;;;;4975823;28;20038;-23
2021/12/10 00:12:49;;;;;;;18.58;4.65;;;;;;;;;;4958536;28;20027;-22
2021/12/10 00:15:15;;;;;;;21.50;4.57;;;;;;;;;;4975771;28;20031;-23
2021/12/10 00:17:42;;;;;;;27.15;4.25;;;;;;;;;;4958724;28;20035;-22
2021/12/10 00:20:10;;;;;;;34.58;5.28;;;;;;;;;;4975438;28;20089;-22
2021/12/10 00:22:41;;;;;;;30.38;5.00;;;;;;;;;;4958803;28;20041;-23
2021/12/10 00:25:10;;;;;;;19.42;4.25;;;;;;;;;;4975464;28;20027;-22
2021/12/10 00:27:36;;;;;;;31.55;3.97;;;;;;;;;;4975659;28;20055;-23
2021/12/10 00:30:14;;;;;;;13.32;3.28;;;;;;;;;;4976122;28;20098;-22
2021/12/10 00:32:44;;;;;;;30.40;4.57;;;;;;;;;;4975602;28;20038;-23
2021/12/10 00:35:14;;;;;;;21.60;6.03;;;;;;;;;;4975777;28;20441;-22
2021/12/10 00:37:40;;;;;;;20.40;3.37;;;;;;;;;;4975317;28;20038;-23
2021/12/10 00:40:09;;;;;;;25.23;4.43;;;;;;;;;;4975548;28;20037;-23
2021/12/10 00:42:36;;;;;;;21.27;3.83;;;;;;;;;;4975120;28;20093;-22
2021/12/10 00:45:04;;;;;;;23.83;3.83;;;;;;;;;;4975248;28;20409;-25
2021/12/10 00:47:30;;;;;;;23.45;3.92;;;;;;;;;;4975487;28;20023;-22
2021/12/10 00:49:57;;;;;;;32.60;5.32;;;;;;;;;;4975222;28;20038;-23
2021/12/10 00:52:23;;;;;;;24.15;3.53;;;;;;;;;;4975140;28;20049;-23
2021/12/10 00:54:50;;;;;;;26.38;4.53;;;;;;;;;;4975390;28;20070;-22
2021/12/10 00:57:16;;;;;;;23.65;4.45;;;;;;;;;;4975312;28;20097;-22
2021/12/10 00:59:43;;;;;;;21.17;4.38;;;;;;;;;;4978111;28;20018;-23
2021/12/10 01:02:11;;;;;;;22.42;3.92;;;;;;;;;;4978625;28;20050;-23
2021/12/10 01:04:40;;;;;;;23.85;5.25;;;;;;;;;;4979154;28;20027;-23
2021/12/10 01:07:08;;;;;;;33.97;7.32;;;;;;;;;;4978844;28;20410;-23
2021/12/10 01:09:37;;;;;;;35.45;5.88;;;;;;;;;;4978541;28;20094;-22
2021/12/10 01:12:08;;;;;;;22.42;4.30;;;;;;;;;;4978436;28;20033;-23
2021/12/10 01:15:04;;;;;;;14.23;3.40;;;;;;;;;;4978960;28;20100;-23
2021/12/10 01:26:08;;;;;;;14.95;3.70;;;;;;;;;;4978291;28;20065;-22
2021/12/10 01:28:35;;;;;;;19.80;3.25;;;;;;;;;;4978487;28;20069;-22
2021/12/10 01:31:01;;;;;;;32.33;6.78;;;;;;;;;;4978124;28;20026;-23
2021/12/10 01:33:28;;;;;;;26.58;4.50;;;;;;;;;;4978185;28;20026;-23
2021/12/10 01:35:57;;;;;;;23.63;3.78;;;;;;;;;;4978515;28;20034;-22
2021/12/10 01:38:24;;;;;;;17.40;3.60;;;;;;;;;;4978257;28;20031;-22
2021/12/10 01:40:54;;;;;;;19.63;2.83;;;;;;;;;;4978167;28;20406;-23
2021/12/10 01:43:23;;;;;;;15.80;2.80;;;;;;;;;;4977784;28;20470;-22
2021/12/10 01:45:52;;;;;;;25.08;3.38;;;;;;;;;;4977848;28;20061;-22
2021/12/10 01:48:24;;;;;;;37.35;4.38;;;;;;;;;;4977846;28;20111;-22
2021/12/10 01:50:51;;;;;;;18.95;3.72;;;;;;;;;;4977774;28;20146;-22
2021/12/10 01:53:20;;;;;;;25.00;4.90;;;;;;;;;;4977670;28;20374;-22
2021/12/10 01:55:47;;;;;;;19.60;3.67;;;;;;;;;;4977565;28;20300;-22
2021/12/10 01:58:16;;;;;;;14.95;3.03;;;;;;;;;;4977902;28;20033;-22
2021/12/10 02:00:44;;;;;;;16.88;3.58;;;;;;;;;;4977537;28;20022;-23
2021/12/10 02:03:11;;;;;;;23.40;4.88;;;;;;;;;;4977239;28;20038;-22
2021/12/10 02:05:37;;;;;;;20.92;3.20;;;;;;;;;;4977752;28;20019;-22
2021/12/10 02:08:04;;;;;;;15.73;3.75;;;;;;;;;;4977423;28;20109;-23
2021/12/10 02:10:30;;;;;;;14.02;3.70;;;;;;;;;;4977221;28;20026;-23
2021/12/10 02:12:57;;;;;;;20.85;4.05;;;;;;;;;;4977458;28;20039;-24
2021/12/10 02:15:27;;;;;;;6.18;2.92;;;;;;;;;;4977518;28;20030;-22
2021/12/10 02:17:55;;;;;;;16.38;2.90;;;;;;;;;;4978317;28;20350;-22
2021/12/10 02:20:40;;;;;;;16.90;4.40;;;;;;;;;;4977472;28;20433;-22
2021/12/10 02:23:07;;;;;;;16.70;3.47;;;;;;;;;;4977371;28;20022;-22
2021/12/10 02:25:38;;;;;;;14.98;3.05;;;;;;;;;;4977117;28;20123;-22
2021/12/10 02:28:05;;;;;;;30.48;4.75;;;;;;;;;;4977132;28;20110;-23
2021/12/10 02:30:32;;;;;;;31.58;4.15;;;;;;;;;;4977512;28;20058;-26
2021/12/10 02:32:58;;;;;;;24.58;4.70;;;;;;;;;;4977184;28;20034;-22
2021/12/10 02:35:25;;;;;;;14.18;3.20;;;;;;;;;;4959943;28;20015;-22
2021/12/10 02:37:51;;;;;;;14.43;3.40;;;;;;;;;;4977159;28;20413;-22
2021/12/10 02:40:18;;;;;;;12.95;2.65;;;;;;;;;;4976895;28;20098;-22
2021/12/10 02:42:46;;;;;;;12.95;3.08;;;;;;;;;;4977036;28;20465;-22
2021/12/10 02:45:15;;;;;;;12.57;3.70;;;;;;;;;;4976779;28;20025;-23
2021/12/10 02:47:42;;;;;;;13.65;3.65;;;;;;;;;;4976994;28;20356;-22
2021/12/10 02:50:09;;;;;;;13.52;3.65;;;;;;;;;;4977071;28;20110;-22
2021/12/10 02:52:35;;;;;;;19.23;3.28;;;;;;;;;;4976679;28;20066;-22
2021/12/10 02:55:01;;;;;;;11.43;2.55;;;;;;;;;;4976933;28;20331;-23
2021/12/10 02:57:28;;;;;;;18.77;3.08;;;;;;;;;;4976825;28;20042;-24
2021/12/10 02:59:54;;;;;;;18.40;3.20;;;;;;;;;;4976817;28;20362;-23
2021/12/10 03:02:23;;;;;;;20.63;2.72;;;;;;;;;;4976184;28;20501;-23
2021/12/10 03:04:49;;;;;;;18.58;3.00;;;;;;;;;;4976959;28;20431;-25
2021/12/10 03:07:18;;;;;;;13.93;3.55;;;;;;;;;;4959253;28;20033;-24
2021/12/10 03:09:47;;;;;;;11.45;2.85;;;;;;;;;;4976518;28;20387;-23
2021/12/10 03:12:14;;;;;;;8.40;3.17;;;;;;;;;;4976195;28;20462;-22
2021/12/10 03:14:43;;;;;;;20.83;5.22;;;;;;;;;;4976224;28;20050;-22
2021/12/10 03:17:13;;;;;;;11.85;3.08;;;;;;;;;;4976405;28;20379;-23
2021/12/10 03:19:39;;;;;;;21.95;4.32;;;;;;;;;;4959153;28;20486;-23
2021/12/10 03:22:07;;;;;;;12.50;3.15;;;;;;;;;;4975187;28;20110;-22
2021/12/10 03:24:34;;;;;;;17.73;3.55;;;;;;;;;;4976307;28;20026;-22
2021/12/10 03:27:03;;;;;;;17.15;4.32;;;;;;;;;;4976037;28;20426;-22
2021/12/10 03:29:30;;;;;;;14.55;3.22;;;;;;;;;;4975948;28;20039;-22
2021/12/10 03:31:57;;;;;;;16.83;4.03;;;;;;;;;;4976179;28;20110;-22
2021/12/10 03:34:23;;;;;;;14.30;2.75;;;;;;;;;;4976457;28;20049;-22
2021/12/10 03:36:51;;;;;;;12.48;3.28;;;;;;;;;;4976120;28;20188;-23
2021/12/10 03:39:19;;;;;;;15.25;2.67;;;;;;;;;;4975878;28;20039;-22
2021/12/10 03:41:46;;;;;;;11.57;3.13;;;;;;;;;;4975717;28;20023;-22
2021/12/10 03:44:12;;;;;;;17.15;3.53;;;;;;;;;;4976061;28;20413;-22
2021/12/10 03:46:39;;;;;;;12.48;3.67;;;;;;;;;;4975963;28;20085;-22
2021/12/10 03:49:06;;;;;;;15.05;3.25;;;;;;;;;;4975718;28;20481;-23
2021/12/10 03:51:33;;;;;;;7.30;2.38;;;;;;;;;;4975978;28;20026;-22
2021/12/10 03:54:00;;;;;;;9.20;2.47;;;;;;;;;;4975642;28;20034;-23
2021/12/10 03:56:28;;;;;;;10.80;3.88;;;;;;;;;;4975854;28;20362;-22
2021/12/10 03:58:55;;;;;;;8.02;2.33;;;;;;;;;;4975901;28;20316;-22
2021/12/10 04:01:25;;;;;;;12.75;2.90;;;;;;;;;;4975601;28;20058;-25
2021/12/10 04:03:52;;;;;;;13.15;3.60;;;;;;;;;;4958347;28;20399;-23
2021/12/10 04:06:19;;;;;;;10.13;2.95;;;;;;;;;;4975605;28;20039;-24
2021/12/10 04:08:46;;;;;;;8.20;3.13;;;;;;;;;;4975756;28;20051;-24
2021/12/10 04:11:15;;;;;;;13.15;2.88;;;;;;;;;;4975580;28;20038;-22
2021/12/10 04:13:42;;;;;;;19.92;4.20;;;;;;;;;;4975677;28;20043;-23
2021/12/10 04:16:08;;;;;;;13.43;3.10;;;;;;;;;;4975459;28;20053;-23
2021/12/10 04:18:36;;;;;;;12.57;2.50;;;;;;;;;;4975724;28;20023;-22
2021/12/10 04:21:03;;;;;;;21.33;5.35;;;;;;;;;;4975759;28;20054;-22
2021/12/10 04:23:30;;;;;;;11.82;4.57;;;;;;;;;;4975629;28;20117;-23
2021/12/10 04:25:56;;;;;;;15.93;4.15;;;;;;;;;;4975648;28;20033;-23
2021/12/10 04:28:22;;;;;;;12.52;2.85;;;;;;;;;;4975708;28;20035;-23
2021/12/10 04:30:49;;;;;;;15.13;2.60;;;;;;;;;;4975451;28;20339;-22
2021/12/10 04:33:17;;;;;;;13.23;2.97;;;;;;;;;;4975944;28;20035;-22
2021/12/10 04:35:45;;;;;;;13.50;2.58;;;;;;;;;;4979085;28;20106;-22
2021/12/10 04:38:12;;;;;;;11.07;2.80;;;;;;;;;;4979118;28;20038;-24
2021/12/10 04:40:39;;;;;;;7.55;2.58;;;;;;;;;;4979036;28;20023;-23
2021/12/10 04:43:05;;;;;;;16.55;2.47;;;;;;;;;;4978912;28;20426;-22
2021/12/10 04:45:31;;;;;;;16.83;3.05;;;;;;;;;;4979229;28;20026;-23
2021/12/10 04:47:58;;;;;;;19.60;4.13;;;;;;;;;;4978794;28;20019;-23
2021/12/10 04:50:27;;;;;;;13.13;3.00;;;;;;;;;;4978812;28;20027;-23
2021/12/10 04:52:54;;;;;;;19.05;2.97;;;;;;;;;;4978710;28;20139;-23
2021/12/10 04:55:21;;;;;;;11.75;2.30;;;;;;;;;;4979272;28;20089;-23
2021/12/10 04:57:47;;;;;;;12.38;3.58;;;;;;;;;;4978679;28;20031;-22
2021/12/10 05:00:19;;;;;;;12.68;2.83;;;;;;;;;;4978824;28;20027;-22
2021/12/10 05:02:45;;;;;;;10.15;2.72;;;;;;;;;;4978336;28;20470;-23
2021/12/10 05:05:12;;;;;;;6.72;2.33;;;;;;;;;;4978532;28;20038;-22
2021/12/10 05:07:39;;;;;;;9.93;3.63;;;;;;;;;;4978660;28;20033;-23
2021/12/10 05:10:07;;;;;;;13.43;2.47;;;;;;;;;;4978537;28;20047;-24
2021/12/10 05:12:33;;;;;;;7.85;2.97;;;;;;;;;;4978283;28;20038;-22
2021/12/10 05:15:01;;;;;;;15.43;2.15;;;;;;;;;;4978182;28;20091;-22
2021/12/10 05:17:29;;;;;;;12.52;2.83;;;;;;;;;;4978040;28;20096;-22
2021/12/10 05:19:57;;;;;;;12.52;2.83;;;;;;;;;;4978175;28;20031;-23
2021/12/10 05:22:23;;;;;;;17.25;3.00;;;;;;;;;;4977850;28;20030;-22
2021/12/10 05:24:50;;;;;;;15.50;3.22;;;;;;;;;;4978201;28;20061;-22
2021/12/10 05:27:16;;;;;;;12.32;2.80;;;;;;;;;;4978302;28;20065;-23
2021/12/10 05:29:42;;;;;;;12.00;2.47;;;;;;;;;;4978293;28;20027;-23
2021/12/10 05:32:09;;;;;;;9.52;2.53;;;;;;;;;;4977865;28;20041;-22
2021/12/10 05:34:39;;;;;;;11.95;2.58;;;;;;;;;;4978141;28;20031;-22
2021/12/10 05:37:06;;;;;;;10.32;3.00;;;;;;;;;;4977844;28;20039;-23
2021/12/10 05:39:33;;;;;;;9.05;2.17;;;;;;;;;;4960733;28;20089;-22
2021/12/10 05:42:01;;;;;;;10.48;2.20;;;;;;;;;;4977700;28;20102;-22
2021/12/10 05:44:27;;;;;;;9.55;2.67;;;;;;;;;;4977139;28;20031;-23
2021/12/10 05:46:53;;;;;;;14.52;3.50;;;;;;;;;;4977241;28;20062;-22
2021/12/10 05:49:22;;;;;;;10.27;2.35;;;;;;;;;;4977715;28;20046;-23
2021/12/10 05:51:48;;;;;;;9.48;2.38;;;;;;;;;;4977533;28;20357;-23
2021/12/10 05:54:14;;;;;;;13.00;2.67;;;;;;;;;;4960866;28;20027;-22
2021/12/10 05:56:41;;;;;;;5.13;2.20;;;;;;;;;;4977706;28;20117;-22
2021/12/10 05:59:07;;;;;;;15.93;2.60;;;;;;;;;;4977638;28;20387;-24
2021/12/10 06:01:33;;;;;;;12.63;2.92;;;;;;;;;;4977624;28;20059;-23
2021/12/10 06:04:00;;;;;;;8.85;2.63;;;;;;;;;;4977169;28;20051;-23
2021/12/10 06:06:27;;;;;;;19.83;4.35;;;;;;;;;;4977570;28;20057;-23
2021/12/10 06:08:54;;;;;;;15.98;2.92;;;;;;;;;;4977248;28;20041;-23
2021/12/10 06:11:22;;;;;;;20.23;3.63;;;;;;;;;;4977187;28;20039;-22
2021/12/10 06:13:48;;;;;;;19.55;2.75;;;;;;;;;;4977264;28;20102;-22
2021/12/10 06:16:15;;;;;;;13.82;3.08;;;;;;;;;;4959945;28;20118;-22
2021/12/10 06:18:41;;;;;;;27.30;3.63;;;;;;;;;;4976991;28;20402;-22
2021/12/10 06:21:08;;;;;;;19.88;2.80;;;;;;;;;;4977578;28;20031;-23
2021/12/10 06:23:34;;;;;;;31.38;3.55;;;;;;;;;;4977222;28;20030;-23
2021/12/10 06:26:00;;;;;;;15.57;2.67;;;;;;;;;;4976981;28;20035;-23
2021/12/10 06:28:26;;;;;;;11.45;2.78;;;;;;;;;;4977700;28;20094;-22
2021/12/10 06:30:53;;;;;;;25.15;3.00;;;;;;;;;;4976858;28;20027;-23
2021/12/10 06:33:21;;;;;;;23.88;2.70;;;;;;;;;;4977106;28;20031;-22
2021/12/10 06:35:49;;;;;;;19.92;3.38;;;;;;;;;;4976824;28;20101;-23
2021/12/10 06:38:15;;;;;;;13.90;2.88;;;;;;;;;;4976688;28;20101;-23
2021/12/10 06:40:42;;;;;;;18.33;3.55;;;;;;;;;;4976877;28;20438;-24
2021/12/10 06:43:09;;;;;;;28.33;4.28;;;;;;;;;;4976575;28;20374;-22
2021/12/10 06:45:36;;;;;;;19.30;4.22;;;;;;;;;;4976688;28;20019;-22
2021/12/10 06:48:04;;;;;;;14.10;2.83;;;;;;;;;;4976779;28;20030;-22
2021/12/10 06:50:31;;;;;;;13.43;3.13;;;;;;;;;;4976775;28;20066;-24
2021/12/10 06:52:57;;;;;;;33.10;3.42;;;;;;;;;;4976359;28;20034;-23
2021/12/10 06:55:24;;;;;;;20.35;2.97;;;;;;;;;;4976203;28;20023;-22
2021/12/10 06:57:50;;;;;;;27.45;3.78;;;;;;;;;;4976059;28;20038;-24
2021/12/10 07:00:19;;;;;;;18.30;2.95;;;;;;;;;;4959118;28;20113;-22
2021/12/10 07:02:46;;;;;;;17.77;3.92;;;;;;;;;;4976107;28;20046;-22
2021/12/10 07:05:13;;;;;;;17.08;2.72;;;;;;;;;;4975969;28;20034;-23
2021/12/10 07:07:39;;;;;;;17.50;3.00;;;;;;;;;;4976373;28;20031;-23
2021/12/10 07:10:08;;;;;;;29.85;2.72;;;;;;;;;;4976136;28;20022;-23
2021/12/10 07:12:35;;;;;;;23.17;4.82;;;;;;;;;;4976084;28;20031;-22
2021/12/10 07:15:02;;;;;;;21.77;4.18;;;;;;;;;;4976445;28;20336;-22
2021/12/10 07:17:28;;;;;;;14.48;3.13;;;;;;;;;;4975839;28;20100;-25
2021/12/10 07:19:55;;;;;;;23.60;4.30;;;;;;;;;;4976029;28;20023;-24
2021/12/10 07:22:21;;;;;;;30.27;4.93;;;;;;;;;;4975658;28;20026;-23
2021/12/10 07:24:48;;;;;;;17.75;3.08;;;;;;;;;;4975816;28;20030;-23
2021/12/10 07:27:14;;;;;;;24.95;3.17;;;;;;;;;;4976604;28;20066;-22
2021/12/10 07:29:40;;;;;;;14.43;3.97;;;;;;;;;;4975655;28;20346;-23
2021/12/10 07:32:09;;;;;;;17.17;3.67;;;;;;;;;;4975546;28;20054;-22
2021/12/10 07:34:36;;;;;;;23.73;3.33;;;;;;;;;;4975371;28;20030;-23
2021/12/10 07:37:03;;;;;;;31.15;5.35;;;;;;;;;;4975598;28;20114;-22
2021/12/10 07:39:30;;;;;;;19.67;3.47;;;;;;;;;;4975662;28;20102;-23
2021/12/10 07:41:59;;;;;;;25.58;4.30;;;;;;;;;;4975254;28;20027;-23
2021/12/10 07:44:25;;;;;;;17.98;3.10;;;;;;;;;;4975121;28;20109;-23
2021/12/10 07:46:51;;;;;;;18.58;3.15;;;;;;;;;;4975562;28;20026;-22
2021/12/10 07:49:27;;;;;;;28.92;5.40;;;;;;;;;;4958470;28;20034;-23
2021/12/10 07:51:54;;;;;;;14.68;3.00;;;;;;;;;;4975858;28;20049;-23
2021/12/10 07:54:21;;;;;;;20.00;2.78;;;;;;;;;;4975849;28;20034;-22
2021/12/10 07:56:47;;;;;;;29.90;4.32;;;;;;;;;;4975443;28;20038;-22
2021/12/10 07:59:14;;;;;;;25.48;3.42;;;;;;;;;;4975547;28;20102;-22
2021/12/10 08:01:40;;;;;;;17.50;3.40;;;;;;;;;;4975725;28;20031;-22
2021/12/10 08:04:07;;;;;;;23.50;3.17;;;;;;;;;;4958452;28;20138;-23
2021/12/10 08:06:34;;;;;;;35.38;3.08;;;;;;;;;;4975775;28;20042;-23
2021/12/10 08:09:01;;;;;;;40.10;3.50;;;;;;;;;;4977785;28;20031;-22
2021/12/10 08:11:27;;;;;;;29.48;4.22;;;;;;;;;;4979766;28;20026;-22
2021/12/10 08:13:54;;;;;;;22.38;4.18;;;;;;;;;;4979228;28;20031;-22
2021/12/10 08:16:23;;;;;;;36.45;4.65;;;;;;;;;;4979381;28;20027;-22
2021/12/10 08:18:49;;;;;;;15.02;2.85;;;;;;;;;;4979490;28;20058;-22
2021/12/10 08:21:17;;;;;;;21.63;3.28;;;;;;;;;;4979161;28;20030;-21
2021/12/10 08:23:44;;;;;;;24.58;3.75;;;;;;;;;;4961885;28;20046;-22
2021/12/10 08:26:12;;;;;;;29.17;5.15;;;;;;;;;;4978942;28;20041;-23
2021/12/10 08:28:39;;;;;;;24.13;4.03;;;;;;;;;;4978755;28;20034;-23
2021/12/10 08:31:05;;;;;;;21.38;4.15;;;;;;;;;;4979167;28;20069;-23
2021/12/10 08:33:32;;;;;;;19.90;4.30;;;;;;;;;;4978907;28;20148;-21
2021/12/10 08:36:01;;;;;;;24.60;3.63;;;;;;;;;;4979127;28;20328;-22
2021/12/10 08:38:28;;;;;;;38.13;4.22;;;;;;;;;;4979529;28;20035;-22
2021/12/10 08:41:04;;;;;;;20.27;3.33;;;;;;;;;;4978907;28;20027;-22
2021/12/10 08:43:31;;;;;;;17.88;3.97;;;;;;;;;;4978675;28;20094;-22
2021/12/10 08:45:58;;;;;;;18.13;3.55;;;;;;;;;;4962026;28;20037;-22
2021/12/10 08:48:26;;;;;;;24.08;3.03;;;;;;;;;;4978465;28;20031;-22
2021/12/10 08:50:53;;;;;;;23.67;3.45;;;;;;;;;;4978506;28;20026;-22
2021/12/10 08:53:20;;;;;;;34.05;3.85;;;;;;;;;;4978496;28;20030;-22
2021/12/10 08:55:48;;;;;;;27.27;3.13;;;;;;;;;;4978229;28;20054;-22
2021/12/10 08:58:15;;;;;;;18.40;3.17;;;;;;;;;;4961241;28;20037;-22
2021/12/10 09:00:44;;;;;;;29.45;5.32;;;;;;;;;;4978730;28;20053;-21
2021/12/10 09:03:11;;;;;;;24.20;3.28;;;;;;;;;;4978103;28;20050;-22
2021/12/10 09:05:37;;;;;;;26.50;3.35;;;;;;;;;;4978069;28;20455;-23
2021/12/10 09:08:04;;;;;;;23.65;4.72;;;;;;;;;;4978192;28;20033;-22
2021/12/10 09:10:32;;;;;;;30.58;4.47;;;;;;;;;;4977972;28;20447;-22
2021/12/10 09:12:59;;;;;;;17.83;3.35;;;;;;;;;;4978526;28;20455;-22
2021/12/10 09:15:27;;;;;;;29.55;4.10;;;;;;;;;;4978034;28;20018;-23
2021/12/10 09:17:57;;;;;;;29.67;5.45;;;;;;;;;;4977025;28;20081;-21
2021/12/10 09:20:26;;;;;;;23.90;5.50;;;;;;;;;;4978156;28;20123;-23
2021/12/10 09:22:53;;;;;;;36.03;3.97;;;;;;;;;;4978297;28;20266;-21
2021/12/10 09:25:20;;;;;;;30.38;5.57;;;;;;;;;;4977814;28;20027;-24
2021/12/10 09:27:46;;;;;;;25.83;3.65;;;;;;;;;;4977862;28;20125;-23
2021/12/10 09:30:15;;;;;;;26.48;5.88;;;;;;;;;;4977543;28;20370;-22
2021/12/10 09:32:42;;;;;;;23.70;4.35;;;;;;;;;;4977405;28;20050;-23
2021/12/10 09:35:10;;;;;;;23.77;4.35;;;;;;;;;;4977771;28;20027;-22
2021/12/10 09:37:37;;;;;;;23.27;3.38;;;;;;;;;;4977583;28;20031;-22
2021/12/10 09:40:10;;;;;;;32.00;3.90;;;;;;;;;;4978134;28;20350;-22
2021/12/10 09:42:37;;;;;;;19.15;5.25;;;;;;;;;;4977394;28;20035;-22
2021/12/10 09:45:05;;;;;;;22.05;3.78;;;;;;;;;;4960522;28;20035;-22
2021/12/10 09:47:31;;;;;;;26.83;3.45;;;;;;;;;;4977358;28;20041;-23
2021/12/10 09:49:57;;;;;;;32.00;4.28;;;;;;;;;;4977613;28;20027;-22
2021/12/10 09:52:26;;;;;;;31.58;4.38;;;;;;;;;;4977746;28;20053;-22
2021/12/10 09:54:53;;;;;;;30.38;5.53;;;;;;;;;;4977689;28;20038;-23
2021/12/10 09:57:23;;;;;;;32.67;6.03;;;;;;;;;;4977964;28;20038;-22
2021/12/10 09:59:51;;;;;;;30.95;4.93;;;;;;;;;;4960388;28;20215;-22
2021/12/10 10:02:17;;;;;;;22.63;4.22;;;;;;;;;;4976976;28;20034;-22
2021/12/10 10:04:48;;;;;;;30.40;4.45;;;;;;;;;;4977291;28;20426;-21
2021/12/10 10:07:16;;;;;;;14.00;3.38;;;;;;;;;;4977365;28;20110;-22
2021/12/10 10:09:46;;;;;;;28.25;4.00;;;;;;;;;;4977418;28;20450;-23
2021/12/10 10:12:20;;;;;;;42.30;4.65;;;;;;;;;;4977236;28;20501;-24
2021/12/10 10:14:47;;;;;;;32.65;4.88;;;;;;;;;;4977405;28;20051;-23
2021/12/10 10:17:15;;;;;;;24.35;5.40;;;;;;;;;;4959977;28;20026;-21
2021/12/10 10:19:42;;;;;;;18.77;3.05;;;;;;;;;;4977286;28;20354;-22
2021/12/10 10:22:10;;;;;;;19.20;4.20;;;;;;;;;;4977097;28;20022;-22
2021/12/10 10:24:37;;;;;;;19.50;3.03;;;;;;;;;;4976884;28;20114;-22
2021/12/10 10:27:07;;;;;;;27.85;4.15;;;;;;;;;;4976986;28;20031;-22
2021/12/10 10:29:34;;;;;;;35.95;4.75;;;;;;;;;;4976769;28;20059;-22
2021/12/10 10:32:08;;;;;;;16.05;3.78;;;;;;;;;;4975821;28;20027;-24
2021/12/10 10:34:35;;;;;;;29.63;4.15;;;;;;;;;;4976453;28;20373;-22
2021/12/10 10:37:02;;;;;;;30.70;5.00;;;;;;;;;;4976370;28;20071;-22
2021/12/10 10:39:34;;;;;;;24.33;4.05;;;;;;;;;;4976702;28;20377;-22
2021/12/10 10:42:02;;;;;;;31.73;4.40;;;;;;;;;;4976969;28;20102;-22
2021/12/10 10:44:28;;;;;;;27.83;4.32;;;;;;;;;;4976559;28;20114;-22
2021/12/10 10:46:55;;;;;;;27.80;3.30;;;;;;;;;;4976415;28;20074;-22
2021/12/10 10:49:31;;;;;;;19.95;3.72;;;;;;;;;;4976972;28;20446;-22
2021/12/10 10:51:57;;;;;;;20.65;4.28;;;;;;;;;;4976244;28;20102;-22
2021/12/10 10:54:31;;;;;;;33.05;4.95;;;;;;;;;;4976353;28;20041;-23
2021/12/10 10:56:57;;;;;;;25.25;4.55;;;;;;;;;;4976571;28;20434;-21
2021/12/10 10:59:26;;;;;;;27.77;3.60;;;;;;;;;;4976202;28;20114;-22
2021/12/10 11:02:08;;;;;;;31.08;4.03;;;;;;;;;;4976056;28;20031;-22
2021/12/10 11:04:45;;;;;;;26.23;3.67;;;;;;;;;;4976110;28;20082;-22
2021/12/10 11:07:11;;;;;;;43.33;5.43;;;;;;;;;;4975999;28;20062;-22
2021/12/10 11:09:43;;;;;;;52.75;4.60;;;;;;;;;;4976277;28;20034;-22
2021/12/10 11:12:13;;;;;;;39.95;5.30;;;;;;;;;;4976092;28;20035;-22
2021/12/10 11:14:49;;;;;;;35.40;4.68;;;;;;;;;;4958795;28;20050;-22
2021/12/10 11:17:23;;;;;;;30.75;5.10;;;;;;;;;;4975639;28;20118;-23
2021/12/10 11:19:54;;;;;;;29.35;4.80;;;;;;;;;;4959063;28;20035;-22
2021/12/10 11:22:22;;;;;;;29.10;5.55;;;;;;;;;;4975762;28;20027;-22
2021/12/10 11:24:51;;;;;;;39.60;5.10;;;;;;;;;;4975684;28;20093;-22
2021/12/10 11:27:19;;;;;;;37.50;4.78;;;;;;;;;;4975911;28;20027;-22
2021/12/10 11:29:51;;;;;;;43.58;6.85;;;;;;;;;;4975707;28;20344;-22
2021/12/10 11:32:26;;;;;;;33.60;4.03;;;;;;;;;;4975856;28;20296;-22
2021/12/10 11:35:02;;;;;;;32.35;4.25;;;;;;;;;;4975706;28;20034;-22
2021/12/10 11:37:40;;;;;;;38.47;4.50;;;;;;;;;;4975620;28;20030;-22
2021/12/10 11:40:08;;;;;;;27.95;4.07;;;;;;;;;;4975790;28;20022;-23
2021/12/10 11:42:41;;;;;;;45.63;5.82;;;;;;;;;;4975027;28;20054;-22
2021/12/10 11:45:31;;;;;;;25.33;4.03;;;;;;;;;;4975762;28;20027;-21
2021/12/10 11:48:06;;;;;;;37.72;4.70;;;;;;;;;;4975694;28;20031;-22
2021/12/10 11:50:33;;;;;;;32.50;4.70;;;;;;;;;;4975580;28;20485;-22
2021/12/10 11:53:05;;;;;;;32.67;5.00;;;;;;;;;;4975596;28;20030;-22
2021/12/10 11:55:33;;;;;;;50.63;5.63;;;;;;;;;;4975609;28;20029;-22
2021/12/10 11:58:00;;;;;;;39.92;5.13;;;;;;;;;;4959021;28;20045;-23
2021/12/10 12:00:29;;;;;;;30.83;4.10;;;;;;;;;;4975611;28;20350;-22
2021/12/10 12:03:01;;;;;;;39.20;4.95;;;;;;;;;;4975301;28;20386;-22
2021/12/10 12:05:33;;;;;;;43.60;5.32;;;;;;;;;;4975590;28;20034;-23
2021/12/10 12:08:02;;;;;;;33.50;5.25;;;;;;;;;;4975221;28;20042;-22
2021/12/10 12:10:39;;;;;;;47.85;5.75;;;;;;;;;;4975341;28;20037;-22
2021/12/10 12:13:20;;;;;;;60.78;6.95;;;;;;;;;;4975900;28;20389;-23
2021/12/10 12:15:53;;;;;;;25.42;4.60;;;;;;;;;;4976172;28;20031;-23
2021/12/10 12:18:38;;;;;;;30.27;4.30;;;;;;;;;;4975229;28;20031;-22
2021/12/10 12:26:38;;;;;;;33.30;5.35;;;;;;;;;;4975574;28;20382;-22
2021/12/10 12:29:09;;;;;;;30.35;4.43;;;;;;;;;;4958632;28;20094;-23
2021/12/10 12:31:37;;;;;;;36.72;6.97;;;;;;;;;;4975012;28;20406;-22
2021/12/10 12:34:17;;;;;;;39.58;4.15;;;;;;;;;;4974983;28;20035;-22
2021/12/10 12:36:55;;;;;;;32.22;4.95;;;;;;;;;;4957720;28;20033;-22
2021/12/10 12:39:32;;;;;;;26.40;3.72;;;;;;;;;;4975110;28;20474;-23
2021/12/10 12:42:01;;;;;;;22.58;5.32;;;;;;;;;;4975193;28;20027;-22
2021/12/10 12:44:35;;;;;;;27.83;4.72;;;;;;;;;;4957853;28;20049;-22
2021/12/10 12:47:04;;;;;;;32.72;5.57;;;;;;;;;;4974840;28;20458;-25
2021/12/10 12:49:56;;;;;;;37.42;4.07;;;;;;;;;;4957812;28;20138;-22
2021/12/10 12:52:24;;;;;;;31.15;4.32;;;;;;;;;;4964230;28;20529;-22
2021/12/10 12:55:08;;;;;;;32.65;6.05;;;;;;;;;;4975708;28;20066;-22
2021/12/10 12:57:56;;;;;;;32.15;4.45;;;;;;;;;;4978953;28;20037;-22
2021/12/10 13:00:22;;;;;;;45.75;5.93;;;;;;;;;;4978747;28;20414;-22
2021/12/10 13:02:50;;;;;;;40.83;6.35;;;;;;;;;;4977765;28;20050;-22
2021/12/10 13:05:17;;;;;;;28.08;4.60;;;;;;;;;;4978526;28;20039;-22
2021/12/10 13:07:43;;;;;;;55.70;4.68;;;;;;;;;;4978133;28;20105;-22
2021/12/10 13:10:17;;;;;;;32.08;5.43;;;;;;;;;;4978177;28;20085;-22
2021/12/10 13:12:57;;;;;;;49.40;5.85;;;;;;;;;;4978191;28;20041;-23
2021/12/10 13:15:27;;;;;;;42.20;5.32;;;;;;;;;;4978040;28;20023;-22
2021/12/10 13:17:56;;;;;;;41.05;7.40;;;;;;;;;;4978103;28;20049;-23
2021/12/10 13:20:25;;;;;;;46.25;4.88;;;;;;;;;;4978473;28;20365;-22
2021/12/10 13:22:54;;;;;;;38.78;4.85;;;;;;;;;;4978119;28;20110;-24
2021/12/10 13:25:23;;;;;;;34.53;5.43;;;;;;;;;;4978287;28;20113;-22
2021/12/10 13:27:49;;;;;;;37.00;4.43;;;;;;;;;;4977934;28;20035;-23
2021/12/10 13:30:18;;;;;;;26.20;4.38;;;;;;;;;;4977918;28;20051;-23
2021/12/10 13:32:45;;;;;;;29.75;4.55;;;;;;;;;;4977518;28;20104;-22
2021/12/10 13:35:12;;;;;;;39.92;5.35;;;;;;;;;;4977767;28;20105;-23
2021/12/10 13:37:39;;;;;;;37.20;4.65;;;;;;;;;;4977868;28;20030;-22
2021/12/10 13:40:06;;;;;;;40.65;6.05;;;;;;;;;;4960338;28;20031;-22
2021/12/10 13:42:32;;;;;;;45.47;5.28;;;;;;;;;;4977171;28;20037;-23
2021/12/10 13:44:59;;;;;;;35.53;4.60;;;;;;;;;;4977339;28;20097;-22
2021/12/10 13:47:51;;;;;;;37.38;5.20;;;;;;;;;;4976893;28;20034;-21
2021/12/10 13:50:19;;;;;;;43.35;4.65;;;;;;;;;;4977472;28;20026;-22
2021/12/10 13:52:51;;;;;;;30.17;4.65;;;;;;;;;;4976903;28;20369;-21
2021/12/10 13:55:23;;;;;;;32.55;5.05;;;;;;;;;;4977254;28;20039;-22
2021/12/10 13:58:08;;;;;;;31.67;4.13;;;;;;;;;;4977495;28;20118;-22
2021/12/10 14:00:34;;;;;;;29.88;4.05;;;;;;;;;;4960154;28;20034;-21
2021/12/10 14:03:00;;;;;;;32.83;4.53;;;;;;;;;;4977011;28;20070;-23
2021/12/10 14:05:29;;;;;;;31.30;4.47;;;;;;;;;;4977121;28;20026;-22
2021/12/10 14:07:58;;;;;;;34.08;6.60;;;;;;;;;;4977188;28;20037;-22
2021/12/10 14:10:31;;;;;;;34.58;5.63;;;;;;;;;;4977038;28;20033;-22
2021/12/10 14:12:59;;;;;;;35.72;5.05;;;;;;;;;;4959966;28;20322;-24
2021/12/10 14:15:33;;;;;;;40.28;4.75;;;;;;;;;;4959866;28;20039;-24
2021/12/10 14:18:01;;;;;;;59.05;8.80;;;;;;;;;;4977596;28;20027;-23
2021/12/10 14:20:33;;;;;;;53.00;9.18;;;;;;;;;;4977297;28;20034;-22
2021/12/10 14:23:01;;;;;;;33.33;4.38;;;;;;;;;;4960117;28;20039;-22
2021/12/10 14:25:34;;;;;;;31.45;4.78;;;;;;;;;;4977112;28;20022;-22
2021/12/10 14:28:10;;;;;;;46.40;6.32;;;;;;;;;;4976965;28;20461;-23
2021/12/10 14:30:42;;;;;;;42.88;6.03;;;;;;;;;;4977245;28;20031;-23
2021/12/10 14:33:27;;;;;;;40.22;6.47;;;;;;;;;;4976704;28;20500;-22
2021/12/10 14:36:04;;;;;;;45.13;6.50;;;;;;;;;;4976741;28;20031;-23
2021/12/10 14:38:38;;;;;;;46.53;5.82;;;;;;;;;;4976568;28;20481;-23
2021/12/10 14:41:09;;;;;;;32.88;5.63;;;;;;;;;;4976732;28;20026;-23
2021/12/10 14:43:38;;;;;;;30.85;4.75;;;;;;;;;;4976472;28;20042;-23
2021/12/10 14:46:10;;;;;;;35.03;4.85;;;;;;;;;;4976575;28;20359;-23
2021/12/10 14:48:37;;;;;;;26.00;4.82;;;;;;;;;;4976714;28;20391;-23
2021/12/10 14:51:10;;;;;;;48.58;6.40;;;;;;;;;;4976326;28;20023;-22
2021/12/10 14:53:39;;;;;;;35.95;5.43;;;;;;;;;;4976203;28;20031;-23